Opolis, Kansas
Current Conditions -  °F | °C
As of 2:35 PM on Thursday 27 Nov 2014 (Local Time) from KPTS Reporting Station
Clear Clear  
Wind Chill: 38°   Ceiling: Unl
Heat Index: 41°   Visibility: 10mi
Dew Point: 26°   Wind: 5mph
Humidity: 55%   Direction: 220°SW
Pressure: 30.44"   Gusts: NA
Location:  37.34°N, 94.62°W
Report Text: KPTS 272035Z AUTO 22004KT 10SM CLR 05/M03 A3044 RMK AO2 T00511034
Loading
Personal Weather Stations






























Interactive Weather Map New forecast layout! Learn more

10-Day Weather Forecast

Advertisements
Track Severe Weather on mobile